Aérodrome :
LOGIN :

S'inscrire | Disclaimer

   EN    FR    IT 

 










Légende :    VFR   VFR Marginal   IFR   IFR Intensif   IFR Très Intensif
Visi : 
Plafond : 
>= 8 km
>= 3000ft
5 à 8 km
1000 à 3000 ft
1500m à 5 km
500 à 1000 ft
800 à 1500m
200 à 500 ft
< 800m
< 200 ft
Symboles :   Orages  Brouillard  Fortes neiges  Fortes précipitations  Vent > 20 kt
SIGMETs :   Divers  Orages  Givrage  Turbulence  Onde Orograph.  Cendres Volcan.







- Altitude de l'aérodrome : 1017 ft
- Voir les cartes d'approche


LFSL - Brive Souillac

DERNIER METAR :
  • 200100Z AUTO 29006KT 250V310 4200 -DZ BR OVC002 07/06 Q1015

METARs EXPIRÉS :
  • 200030Z AUTO 29005KT 6000 -RA OVC003 07/06 Q1015
  • 200000Z AUTO 28004KT 250V310 7000 BKN004 OVC011 07/06 Q1016
  • 192330Z AUTO 30005KT 9999 SCT004/// BKN010/// BKN016/// ///TCU 07/06 Q1016
  • 192300Z AUTO 31006KT 9999 OVC004 07/06 Q1016
  • 192230Z AUTO 31006KT 8000 OVC003 07/07 Q1016

TAF TAF LFSL
Valide du 19 à 18h jusqu'au 20 à 03h UTC


191700Z 1918/2003 28005KT 9999 BKN040
BECMG 1919/1921 VRB02KT BKN007 BKN030
TEMPO 1919/2003 4000 -RADZ BKN002
PROB30
TEMPO 2001/2003 0400 FG VV///
Pas de NOTAMs connus pour ce terrain.



MET'MAP, la Météo Aéronautique d'un coup d'oeil ! - Copyright ORBIFLY Décembre 2007 - Disclaimer

ORBIFLY MET'MAP TEAM :

Programmation & Développement : Alexandra Zaïnal
Conception & Développement : Baudouin d'Aumeries
Co-Programmation & Développement : Marc-Olivier Méhu
Soutien technique & logistique : Manuel Goepfert

Contact : metmap@orbifly.com




SOURCES & CREDITS :

   NOAA